Accueil
METAR-TAF:

METAR-TAF

Aéroports :

Chambery / Aix-Les-Bains, France

Aéroport de Chambéry - Savoie

latitude: 45-39N, longitude: 005-53E, altitude: 235 m

Observation

Le bulletin a été fait il y a 12 minutes, à 05:00 UTC
Vent 5 kt de sud/sud-ouest
Température 0°C
Humidité 93%
Pression 1021 hPa
Visibilité: 8000 m
Quelques nuages à une hauteur de 1900 ft

METAR: LFLB 130500Z AUTO 20005KT 8000 FEW019 M00/M01 Q1021

Heure: 06:12 (05:12 UTC)

Prévision

Le bulletin a été fait il y a 8 heures et 27 minutes, à 20:45 UTC
Prévision valable du 12 à 20 UTC au 13 à 12 UTC
Vent 2 kt de direction variable
Visibilité 10 km ou plus
Nuages fragmentés à une hauteur de 1500 ft
Evoluant progressivement
du 13 à 08 UTC au 13 à 10 UTC
Vent 10 kt de sud
Visibilité 10 km ou plus
pas de nuages en-dessous de 1500 mètres et pas de cumulonimbus.

TAF: LFLB 122045Z 1220/1312 VRB02KT 9999 BKN015 BECMG 1308/1310 18010KT CAVOK

Observations et prévisions météorologiques de plus de 4000 aéroports (messages METAR et TAF).

Les stations disponibles sont représentées par des disques jaunes et rouges sur la carte.

Passer la souris dessus pour voir le nom de la station.

Cliquer dessus pour voir les observations et prévisions météorologiques.

Pour changer de carte: cliquez sur les boutons verts avec une croix noire pour zoomer, sur le bouton vert avec un tiret pour effectuer un zoom arrière, ou sur les flèches vertes pour les cartes adjacentes.


METAR-TAF: